Time;durP1;ratioP1;P1;durP2;ratioP2;P2;SDS_P1;SDS_P2;PMS_P1;PMS_P2;Temp;Humidity;BMP_temperature;BMP_pressure;BME280_temperature;BME280_humidity;BME280_pressure;Samples;Min_cycle;Max_cycle;Signal;HPM_P1;HPM_P2
2022/03/27 00:00:29;;;;;;;1.33;0.95;;;;;;;;;;5039400;28;20029;-77
2022/03/27 00:02:54;;;;;;;2.08;1.67;;;;;;;;;;5026778;28;20442;-77
2022/03/27 00:05:20;;;;;;;1.23;1.13;;;;;;;;;;5026989;28;20116;-77
2022/03/27 00:07:47;;;;;;;1.92;0.63;;;;;;;;;;5042896;28;20099;-77
2022/03/27 00:10:13;;;;;;;1.50;0.70;;;;;;;;;;5034248;28;20136;-77
2022/03/27 00:12:48;;;;;;;2.20;2.10;;;;;;;;;;5039438;28;20369;-77
2022/03/27 00:15:13;;;;;;;0.57;0.57;;;;;;;;;;5036878;28;20028;-77
2022/03/27 00:17:44;;;;;;;0.43;0.43;;;;;;;;;;5038068;28;20102;-78
2022/03/27 00:20:12;;;;;;;0.13;0.13;;;;;;;;;;5033281;28;20164;-78
2022/03/27 00:22:40;;;;;;;0.28;0.28;;;;;;;;;;5039196;28;20075;-77
2022/03/27 00:25:09;;;;;;;0.52;0.52;;;;;;;;;;5076082;28;20043;-77
2022/03/27 00:27:35;;;;;;;1.15;0.85;;;;;;;;;;5062903;28;20024;-78
2022/03/27 00:30:03;;;;;;;2.20;0.63;;;;;;;;;;5062715;28;20028;-77
2022/03/27 00:32:28;;;;;;;1.90;1.30;;;;;;;;;;5077707;28;20035;-77
2022/03/27 00:34:54;;;;;;;0.95;0.95;;;;;;;;;;5094004;28;20028;-77
2022/03/27 00:37:19;;;;;;;0.15;0.15;;;;;;;;;;5080081;28;20116;-77
2022/03/27 00:39:45;;;;;;;1.17;1.10;;;;;;;;;;5065761;28;20067;-77
2022/03/27 00:42:11;;;;;;;0.47;0.47;;;;;;;;;;5058130;28;20026;-78
2022/03/27 00:44:38;;;;;;;0.28;0.28;;;;;;;;;;5073788;28;20027;-77
2022/03/27 00:47:05;;;;;;;0.40;0.40;;;;;;;;;;5082782;28;20452;-77
2022/03/27 00:49:31;;;;;;;0.57;0.57;;;;;;;;;;5088031;28;20031;-77
2022/03/27 00:51:59;;;;;;;0.98;0.68;;;;;;;;;;5069913;28;20048;-77
2022/03/27 00:54:24;;;;;;;1.92;1.60;;;;;;;;;;5084742;28;20039;-77
2022/03/27 00:56:52;;;;;;;0.43;0.43;;;;;;;;;;5089469;28;20036;-76
2022/03/27 00:59:20;;;;;;;3.20;2.38;;;;;;;;;;5083048;28;20513;-77
2022/03/27 01:01:48;;;;;;;5.10;1.13;;;;;;;;;;5090441;28;20019;-77
2022/03/27 01:04:16;;;;;;;0.25;0.25;;;;;;;;;;5083396;28;20032;-78
2022/03/27 01:06:47;;;;;;;0.75;0.65;;;;;;;;;;5063738;28;20111;-77
2022/03/27 01:09:37;;;;;;;1.45;1.35;;;;;;;;;;5088470;28;20067;-77
2022/03/27 01:12:28;;;;;;;0.80;0.80;;;;;;;;;;5087346;28;20050;-77
2022/03/27 01:14:56;;;;;;;0.73;0.63;;;;;;;;;;5057242;28;20029;-77
2022/03/27 01:17:26;;;;;;;0.65;0.65;;;;;;;;;;5088619;28;20024;-77
2022/03/27 01:19:56;;;;;;;0.90;0.80;;;;;;;;;;5090922;28;20122;-77
2022/03/27 01:22:22;;;;;;;2.30;1.83;;;;;;;;;;5071282;28;20016;-77
2022/03/27 01:24:49;;;;;;;2.85;1.42;;;;;;;;;;5100786;28;20020;-77
2022/03/27 01:27:14;;;;;;;1.25;1.17;;;;;;;;;;5087835;28;20447;-77
2022/03/27 01:29:40;;;;;;;0.65;0.65;;;;;;;;;;5074669;28;20110;-77
2022/03/27 01:32:07;;;;;;;7.70;1.88;;;;;;;;;;5074658;28;20047;-77
2022/03/27 01:34:33;;;;;;;0.82;0.82;;;;;;;;;;5071371;28;20127;-76
2022/03/27 01:37:08;;;;;;;0.38;0.38;;;;;;;;;;5077969;28;20107;-77
2022/03/27 01:39:34;;;;;;;1.30;1.20;;;;;;;;;;5108642;28;20086;-78
2022/03/27 01:42:03;;;;;;;0.50;0.50;;;;;;;;;;5078064;28;20085;-77
2022/03/27 01:44:28;;;;;;;1.58;1.42;;;;;;;;;;5100873;28;20031;-79
2022/03/27 01:46:55;;;;;;;0.20;0.20;;;;;;;;;;5096543;28;20027;-77
2022/03/27 01:49:22;;;;;;;0.32;0.30;;;;;;;;;;5087233;28;20012;-77
2022/03/27 01:51:47;;;;;;;1.23;1.13;;;;;;;;;;5092491;28;20107;-77
2022/03/27 01:54:13;;;;;;;0.22;0.22;;;;;;;;;;5069790;28;20548;-77
2022/03/27 01:56:42;;;;;;;0.52;0.52;;;;;;;;;;5066829;28;20026;-76
2022/03/27 01:59:08;;;;;;;0.15;0.15;;;;;;;;;;5090298;28;20050;-76
2022/03/27 02:01:34;;;;;;;1.05;0.93;;;;;;;;;;5067960;28;20089;-77
2022/03/27 02:04:03;;;;;;;0.75;0.75;;;;;;;;;;5084313;28;20647;-77
2022/03/27 02:06:32;;;;;;;0.60;0.60;;;;;;;;;;5063631;28;20051;-78
2022/03/27 02:09:00;;;;;;;1.55;1.45;;;;;;;;;;5079690;28;20112;-77
2022/03/27 02:11:26;;;;;;;2.05;1.23;;;;;;;;;;5092168;28;20027;-77
2022/03/27 02:13:51;;;;;;;0.73;0.52;;;;;;;;;;5057910;28;20024;-76
2022/03/27 02:16:17;;;;;;;0.55;0.40;;;;;;;;;;5078981;28;20043;-77
2022/03/27 02:18:43;;;;;;;1.05;0.65;;;;;;;;;;5056323;28;20028;-75
2022/03/27 02:21:45;;;;;;;0.80;0.80;;;;;;;;;;5092971;28;20029;-77
2022/03/27 02:24:11;;;;;;;0.45;0.45;;;;;;;;;;5083340;28;20433;-77
2022/03/27 02:26:43;;;;;;;3.53;2.05;;;;;;;;;;5061934;28;20086;-77
2022/03/27 02:29:12;;;;;;;0.77;0.77;;;;;;;;;;5092122;28;20024;-77
2022/03/27 02:31:38;;;;;;;1.65;1.55;;;;;;;;;;5075592;28;20102;-77
2022/03/27 02:34:03;;;;;;;1.13;0.95;;;;;;;;;;5048986;28;20039;-77
2022/03/27 02:36:31;;;;;;;0.63;0.63;;;;;;;;;;5095735;28;20038;-77
2022/03/27 02:38:57;;;;;;;0.52;0.52;;;;;;;;;;5060640;28;20114;-77
2022/03/27 02:41:22;;;;;;;2.50;1.85;;;;;;;;;;5079399;28;20133;-77
2022/03/27 02:43:47;;;;;;;1.20;1.13;;;;;;;;;;5082499;28;20037;-78
2022/03/27 02:46:12;;;;;;;1.58;1.48;;;;;;;;;;5098213;28;20033;-81
2022/03/27 02:48:38;;;;;;;2.40;2.05;;;;;;;;;;5093932;28;20024;-81
2022/03/27 02:51:05;;;;;;;0.63;0.60;;;;;;;;;;5087282;28;20043;-80
2022/03/27 02:53:31;;;;;;;0.82;0.82;;;;;;;;;;5060099;28;20456;-80
2022/03/27 02:55:58;;;;;;;1.40;1.30;;;;;;;;;;5082516;28;20032;-80
2022/03/27 02:58:26;;;;;;;0.65;0.65;;;;;;;;;;5069237;28;20038;-78
2022/03/27 03:00:52;;;;;;;0.60;0.60;;;;;;;;;;5070740;28;20024;-80
2022/03/27 03:03:17;;;;;;;1.48;1.38;;;;;;;;;;5075802;28;20103;-79
2022/03/27 03:05:46;;;;;;;1.50;1.40;;;;;;;;;;5065110;28;20114;-80
2022/03/27 03:08:14;;;;;;;1.13;1.02;;;;;;;;;;5072954;28;20111;-81
2022/03/27 03:10:40;;;;;;;1.15;1.08;;;;;;;;;;5076125;28;20028;-80
2022/03/27 03:13:08;;;;;;;2.08;1.55;;;;;;;;;;5092864;28;20403;-79
2022/03/27 03:15:38;;;;;;;1.25;1.13;;;;;;;;;;5094769;28;20023;-79
2022/03/27 03:18:04;;;;;;;0.95;0.88;;;;;;;;;;5094932;28;20066;-80
2022/03/27 03:20:30;;;;;;;1.45;1.35;;;;;;;;;;5085500;28;20056;-81
2022/03/27 03:22:56;;;;;;;1.25;1.17;;;;;;;;;;5063958;28;20096;-81
2022/03/27 03:25:26;;;;;;;1.95;1.80;;;;;;;;;;5055285;28;20448;-79
2022/03/27 03:27:52;;;;;;;1.30;1.20;;;;;;;;;;5075972;28;20032;-80
2022/03/27 03:30:17;;;;;;;2.92;2.00;;;;;;;;;;5063951;28;20024;-79
2022/03/27 03:32:45;;;;;;;3.17;2.78;;;;;;;;;;5093638;28;20099;-81
2022/03/27 03:35:11;;;;;;;1.98;1.35;;;;;;;;;;5089057;28;20461;-80
2022/03/27 03:37:39;;;;;;;2.35;2.15;;;;;;;;;;5070068;28;20077;-80
2022/03/27 03:40:09;;;;;;;1.60;1.50;;;;;;;;;;5080270;28;20382;-81
2022/03/27 03:42:36;;;;;;;2.22;1.98;;;;;;;;;;5073288;28;20025;-81
2022/03/27 03:45:03;;;;;;;2.03;1.63;;;;;;;;;;5047383;28;20063;-81
2022/03/27 03:47:29;;;;;;;2.97;1.63;;;;;;;;;;5090918;28;20152;-80
2022/03/27 03:49:54;;;;;;;2.63;2.40;;;;;;;;;;5084180;28;20027;-80
2022/03/27 03:52:23;;;;;;;6.22;3.30;;;;;;;;;;5098017;28;20337;-79
2022/03/27 03:54:51;;;;;;;6.75;2.75;;;;;;;;;;5075508;28;20466;-80
2022/03/27 03:57:16;;;;;;;6.05;3.65;;;;;;;;;;5088955;28;20499;-80
2022/03/27 03:59:41;;;;;;;1.27;0.98;;;;;;;;;;5061515;28;20070;-80
2022/03/27 04:02:08;;;;;;;3.50;1.73;;;;;;;;;;5085408;28;20065;-79
2022/03/27 04:04:34;;;;;;;6.28;3.83;;;;;;;;;;5059919;28;20474;-80
2022/03/27 04:07:00;;;;;;;3.45;3.15;;;;;;;;;;5083800;28;20043;-80
2022/03/27 04:09:26;;;;;;;4.47;3.88;;;;;;;;;;5108294;28;20016;-80
2022/03/27 04:11:52;;;;;;;3.28;2.97;;;;;;;;;;5117914;28;20038;-80
2022/03/27 04:14:19;;;;;;;0.77;0.77;;;;;;;;;;5071452;28;20027;-80
2022/03/27 04:16:45;;;;;;;2.67;2.35;;;;;;;;;;5093705;28;20028;-80
2022/03/27 04:19:11;;;;;;;2.53;2.33;;;;;;;;;;5082277;28;20032;-81
2022/03/27 04:21:39;;;;;;;4.50;2.75;;;;;;;;;;5058104;28;20463;-80
2022/03/27 04:24:08;;;;;;;3.25;2.58;;;;;;;;;;5069505;28;20025;-80
2022/03/27 04:26:34;;;;;;;1.17;1.08;;;;;;;;;;5090416;28;20039;-81
2022/03/27 04:29:03;;;;;;;2.83;2.17;;;;;;;;;;5069879;28;20025;-81
2022/03/27 04:31:31;;;;;;;4.15;1.90;;;;;;;;;;5082765;28;20021;-80
2022/03/27 04:33:56;;;;;;;3.55;3.30;;;;;;;;;;5080746;28;20052;-81
2022/03/27 04:36:22;;;;;;;6.35;2.90;;;;;;;;;;5096158;28;20510;-80
2022/03/27 04:38:47;;;;;;;2.47;2.28;;;;;;;;;;5066843;28;20060;-79
2022/03/27 04:41:13;;;;;;;2.90;2.42;;;;;;;;;;5096113;28;20063;-80
2022/03/27 04:43:48;;;;;;;5.15;2.67;;;;;;;;;;5098052;28;20032;-80
2022/03/27 04:46:17;;;;;;;2.45;2.25;;;;;;;;;;5089187;28;20020;-81
2022/03/27 04:48:45;;;;;;;2.03;1.85;;;;;;;;;;5110692;28;20027;-81
2022/03/27 04:51:11;;;;;;;4.20;3.35;;;;;;;;;;5104256;28;20027;-81
2022/03/27 04:53:37;;;;;;;3.33;2.80;;;;;;;;;;5073558;28;20028;-80
2022/03/27 04:56:04;;;;;;;2.00;1.90;;;;;;;;;;5070240;28;20020;-81
2022/03/27 04:58:30;;;;;;;1.83;1.73;;;;;;;;;;5080076;28;20453;-80
2022/03/27 05:00:55;;;;;;;4.32;2.72;;;;;;;;;;5079228;28;20028;-81
2022/03/27 05:03:23;;;;;;;5.85;2.65;;;;;;;;;;5074015;28;20035;-81
2022/03/27 05:05:48;;;;;;;2.55;2.40;;;;;;;;;;5063958;28;20033;-81
2022/03/27 05:08:14;;;;;;;2.33;2.13;;;;;;;;;;5086685;28;20031;-80
2022/03/27 05:10:39;;;;;;;5.55;3.08;;;;;;;;;;5086432;28;20039;-79
2022/03/27 05:13:05;;;;;;;2.33;2.22;;;;;;;;;;5062367;28;20047;-79
2022/03/27 05:15:30;;;;;;;2.40;2.25;;;;;;;;;;5085096;28;20032;-79
2022/03/27 05:17:58;;;;;;;3.65;3.08;;;;;;;;;;5056242;28;20074;-80
2022/03/27 05:20:25;;;;;;;1.92;1.83;;;;;;;;;;5086172;28;20020;-80
2022/03/27 05:22:50;;;;;;;2.13;1.92;;;;;;;;;;5090163;28;20428;-81
2022/03/27 05:25:16;;;;;;;10.02;2.10;;;;;;;;;;5069345;28;20106;-80
2022/03/27 05:27:56;;;;;;;2.97;2.28;;;;;;;;;;5056209;28;20362;-80
2022/03/27 05:30:23;;;;;;;2.95;1.83;;;;;;;;;;5063159;28;20047;-80
2022/03/27 05:32:53;;;;;;;2.80;2.60;;;;;;;;;;5077154;28;20023;-81
2022/03/27 05:35:21;;;;;;;2.70;1.48;;;;;;;;;;5055310;28;20024;-80
2022/03/27 05:37:47;;;;;;;1.95;1.83;;;;;;;;;;5098574;28;20032;-81
2022/03/27 05:40:17;;;;;;;16.13;3.15;;;;;;;;;;5049516;28;20074;-81
2022/03/27 05:42:42;;;;;;;3.47;2.67;;;;;;;;;;5047455;28;20098;-78
2022/03/27 05:45:08;;;;;;;3.97;2.63;;;;;;;;;;5078872;28;20447;-80
2022/03/27 05:47:34;;;;;;;2.20;1.67;;;;;;;;;;5069874;28;20028;-81
2022/03/27 05:50:00;;;;;;;2.53;2.33;;;;;;;;;;5062018;28;20016;-80
2022/03/27 05:52:26;;;;;;;3.42;2.97;;;;;;;;;;5074080;28;20161;-78
2022/03/27 05:54:52;;;;;;;1.58;1.48;;;;;;;;;;5065687;28;20097;-80
2022/03/27 05:57:20;;;;;;;3.72;3.35;;;;;;;;;;5076983;28;20100;-79
2022/03/27 05:59:46;;;;;;;2.53;1.83;;;;;;;;;;5056257;28;20044;-80
2022/03/27 06:02:15;;;;;;;4.85;3.40;;;;;;;;;;5101627;28;20035;-80
2022/03/27 06:04:41;;;;;;;2.42;1.95;;;;;;;;;;5093282;28;20093;-80
2022/03/27 06:07:07;;;;;;;2.15;2.03;;;;;;;;;;5060820;28;20032;-79
2022/03/27 06:09:33;;;;;;;1.92;1.80;;;;;;;;;;5079454;28;20089;-80
2022/03/27 06:11:59;;;;;;;1.58;1.45;;;;;;;;;;5076641;28;20032;-80
2022/03/27 06:14:24;;;;;;;3.13;2.63;;;;;;;;;;5064041;28;20452;-81
2022/03/27 06:16:52;;;;;;;1.55;1.45;;;;;;;;;;5053902;28;20115;-80
2022/03/27 06:19:17;;;;;;;2.33;1.70;;;;;;;;;;5079965;28;20077;-81
2022/03/27 06:21:45;;;;;;;3.88;2.85;;;;;;;;;;5099573;28;20020;-77
2022/03/27 06:24:13;;;;;;;2.47;1.65;;;;;;;;;;5083834;28;20031;-75
2022/03/27 06:26:43;;;;;;;3.58;2.97;;;;;;;;;;5085242;28;20106;-78
2022/03/27 06:29:09;;;;;;;2.83;2.63;;;;;;;;;;5087478;28;20028;-76
2022/03/27 06:31:40;;;;;;;6.88;3.78;;;;;;;;;;5062842;28;20031;-77
2022/03/27 06:34:09;;;;;;;2.78;2.50;;;;;;;;;;5078149;28;20028;-78
2022/03/27 06:36:37;;;;;;;2.53;2.33;;;;;;;;;;5094749;28;20031;-76
2022/03/27 06:39:09;;;;;;;2.45;2.25;;;;;;;;;;5071372;28;20048;-76
2022/03/27 06:41:35;;;;;;;2.30;2.03;;;;;;;;;;5091515;28;20030;-76
2022/03/27 06:44:00;;;;;;;2.35;2.08;;;;;;;;;;5095429;28;20056;-76
2022/03/27 06:46:25;;;;;;;3.95;2.15;;;;;;;;;;5085985;28;20016;-76
2022/03/27 06:48:51;;;;;;;3.42;2.53;;;;;;;;;;5065010;28;20502;-76
2022/03/27 06:51:19;;;;;;;2.95;2.75;;;;;;;;;;5088758;28;20462;-75
2022/03/27 06:53:45;;;;;;;1.98;1.88;;;;;;;;;;5094544;28;20055;-76
2022/03/27 06:56:11;;;;;;;3.15;2.75;;;;;;;;;;5068804;28;20035;-76
2022/03/27 06:58:36;;;;;;;1.95;1.63;;;;;;;;;;5067147;28;20032;-75
2022/03/27 07:03:46;;;;;;;7.07;2.47;;;;;;;;;;5089220;28;20477;-76
2022/03/27 07:06:14;;;;;;;2.63;2.42;;;;;;;;;;5097424;28;20032;-75
2022/03/27 07:08:42;;;;;;;1.90;1.80;;;;;;;;;;5067200;28;20120;-77
2022/03/27 07:11:09;;;;;;;2.22;1.38;;;;;;;;;;5061264;28;20052;-75
2022/03/27 07:13:35;;;;;;;3.22;3.00;;;;;;;;;;5082148;28;20111;-75
2022/03/27 07:16:02;;;;;;;9.05;3.20;;;;;;;;;;5085223;28;20066;-75
2022/03/27 07:18:29;;;;;;;6.57;3.60;;;;;;;;;;5077710;28;20060;-75
2022/03/27 07:20:54;;;;;;;5.45;3.35;;;;;;;;;;5090691;28;20103;-76
2022/03/27 07:23:25;;;;;;;3.42;2.60;;;;;;;;;;5098237;28;20052;-76
2022/03/27 07:25:57;;;;;;;4.40;4.07;;;;;;;;;;5085246;28;20020;-76
2022/03/27 07:28:24;;;;;;;4.95;3.60;;;;;;;;;;5075262;28;20029;-76
2022/03/27 07:30:52;;;;;;;4.00;3.63;;;;;;;;;;5074267;28;20454;-74
2022/03/27 07:33:18;;;;;;;3.63;3.33;;;;;;;;;;5092363;28;20456;-76
2022/03/27 07:35:44;;;;;;;5.97;4.90;;;;;;;;;;5059884;28;20099;-76
2022/03/27 07:38:12;;;;;;;5.22;3.72;;;;;;;;;;5089278;28;20025;-74
2022/03/27 07:40:38;;;;;;;4.28;3.90;;;;;;;;;;5067459;28;20051;-76
2022/03/27 07:43:08;;;;;;;10.27;3.17;;;;;;;;;;5096647;28;20331;-76
2022/03/27 07:45:35;;;;;;;4.85;2.83;;;;;;;;;;5069411;28;20032;-77
2022/03/27 07:48:03;;;;;;;4.13;3.83;;;;;;;;;;5087987;28;20175;-77
2022/03/27 07:50:32;;;;;;;8.90;5.20;;;;;;;;;;5100630;28;20032;-77
2022/03/27 07:53:00;;;;;;;2.72;2.50;;;;;;;;;;5090146;28;20047;-76
2022/03/27 07:55:37;;;;;;;3.63;3.13;;;;;;;;;;5064379;28;20357;-76
2022/03/27 07:58:06;;;;;;;6.05;5.45;;;;;;;;;;5086787;28;20121;-76
2022/03/27 08:00:36;;;;;;;4.75;3.70;;;;;;;;;;5074426;28;20020;-77
2022/03/27 08:03:02;;;;;;;5.43;2.65;;;;;;;;;;5074547;28;20074;-77
2022/03/27 08:05:30;;;;;;;9.43;5.57;;;;;;;;;;5069820;28;20030;-77
2022/03/27 08:07:59;;;;;;;7.82;6.05;;;;;;;;;;5090324;28;20020;-76
2022/03/27 08:10:26;;;;;;;5.53;4.85;;;;;;;;;;5093739;28;20020;-77
2022/03/27 08:12:54;;;;;;;6.93;5.90;;;;;;;;;;5063873;28;20046;-77
2022/03/27 08:15:21;;;;;;;5.05;4.53;;;;;;;;;;5074464;28;20047;-76
2022/03/27 08:17:47;;;;;;;13.88;5.70;;;;;;;;;;5087473;28;20039;-75
2022/03/27 08:20:15;;;;;;;3.97;3.40;;;;;;;;;;5084962;28;20024;-74
2022/03/27 08:22:43;;;;;;;5.10;4.60;;;;;;;;;;5079757;28;20028;-76
2022/03/27 08:26:55;;;;;;;8.27;4.35;;;;;;;;;;5093868;28;20028;-76
2022/03/27 08:27:57;;;;;;;4.72;4.25;;;;;;;;;;5067933;28;20046;-75
2022/03/27 08:30:22;;;;;;;4.53;3.08;;;;;;;;;;5087374;28;20047;-76
2022/03/27 08:32:52;;;;;;;6.47;5.20;;;;;;;;;;5105690;28;20056;-76
2022/03/27 08:35:17;;;;;;;4.70;3.97;;;;;;;;;;5093516;28;20039;-76
2022/03/27 08:37:45;;;;;;;4.78;4.30;;;;;;;;;;5079277;28;20028;-76
2022/03/27 08:40:15;;;;;;;4.57;3.38;;;;;;;;;;5081994;28;20085;-76
2022/03/27 08:42:40;;;;;;;9.38;4.45;;;;;;;;;;5085085;28;20077;-75
2022/03/27 08:45:06;;;;;;;2.67;2.47;;;;;;;;;;5075631;28;20103;-76
2022/03/27 08:47:34;;;;;;;4.07;3.17;;;;;;;;;;5080900;28;20102;-77
2022/03/27 08:50:04;;;;;;;7.75;5.15;;;;;;;;;;5073690;28;20051;-77
2022/03/27 08:52:53;;;;;;;6.22;4.25;;;;;;;;;;5086463;28;20333;-76
2022/03/27 08:55:23;;;;;;;7.22;4.00;;;;;;;;;;5068169;28;20046;-76
2022/03/27 08:58:01;;;;;;;5.55;4.30;;;;;;;;;;5095358;28;20035;-76
2022/03/27 09:00:34;;;;;;;9.32;5.50;;;;;;;;;;5075418;28;20439;-76
2022/03/27 09:03:01;;;;;;;4.45;4.05;;;;;;;;;;5065052;28;20016;-74
2022/03/27 09:05:27;;;;;;;9.13;6.32;;;;;;;;;;5056167;28;20020;-76
2022/03/27 09:07:54;;;;;;;4.45;2.38;;;;;;;;;;5052938;28;20023;-76
2022/03/27 09:10:21;;;;;;;4.40;2.78;;;;;;;;;;5079474;28;20032;-76
2022/03/27 09:12:51;;;;;;;4.15;3.70;;;;;;;;;;5066328;28;20392;-76
2022/03/27 09:15:19;;;;;;;4.70;3.72;;;;;;;;;;5063109;28;20027;-77
2022/03/27 09:18:08;;;;;;;7.10;5.38;;;;;;;;;;5086812;28;20024;-78
2022/03/27 09:20:34;;;;;;;10.75;3.67;;;;;;;;;;5070306;28;20063;-76
2022/03/27 09:23:18;;;;;;;3.40;3.10;;;;;;;;;;5085277;28;20108;-78
2022/03/27 09:25:46;;;;;;;4.00;3.65;;;;;;;;;;5086739;28;20040;-78
2022/03/27 09:28:12;;;;;;;5.40;4.13;;;;;;;;;;5089013;28;20028;-80
2022/03/27 09:30:53;;;;;;;5.28;3.72;;;;;;;;;;5089591;28;20031;-77
2022/03/27 09:33:46;;;;;;;2.78;2.13;;;;;;;;;;5066078;28;20032;-76
2022/03/27 09:36:21;;;;;;;3.25;3.03;;;;;;;;;;5057401;28;20418;-76
2022/03/27 09:39:04;;;;;;;4.00;2.05;;;;;;;;;;5077349;28;20028;-77
2022/03/27 09:42:03;;;;;;;2.58;2.38;;;;;;;;;;5085188;28;20046;-77
2022/03/27 09:44:29;;;;;;;3.30;3.00;;;;;;;;;;5079444;28;20103;-77
2022/03/27 09:47:04;;;;;;;4.97;3.20;;;;;;;;;;5082407;28;20107;-76
2022/03/27 09:49:35;;;;;;;3.10;2.70;;;;;;;;;;5084702;28;20035;-76
2022/03/27 09:52:05;;;;;;;2.30;2.08;;;;;;;;;;5091475;28;20016;-76
2022/03/27 09:54:45;;;;;;;3.97;2.75;;;;;;;;;;5096063;28;20034;-77
2022/03/27 09:57:26;;;;;;;1.95;1.85;;;;;;;;;;5087679;28;20454;-76
2022/03/27 09:59:53;;;;;;;5.13;4.13;;;;;;;;;;5086633;28;20038;-80
2022/03/27 10:02:24;;;;;;;3.45;2.33;;;;;;;;;;5089164;28;20024;-80
2022/03/27 10:04:55;;;;;;;4.03;3.65;;;;;;;;;;5082962;28;20024;-79
2022/03/27 10:07:48;;;;;;;2.95;2.75;;;;;;;;;;5091253;28;20032;-82
2022/03/27 10:10:17;;;;;;;3.25;2.92;;;;;;;;;;5064733;28;20056;-80
2022/03/27 10:12:47;;;;;;;3.28;3.00;;;;;;;;;;5081407;28;20457;-81
2022/03/27 10:15:14;;;;;;;3.38;3.08;;;;;;;;;;5058904;28;20028;-81
2022/03/27 10:17:44;;;;;;;6.00;3.08;;;;;;;;;;5062756;28;20028;-81
2022/03/27 10:20:16;;;;;;;3.42;2.70;;;;;;;;;;5058979;28;20094;-79
2022/03/27 10:22:49;;;;;;;6.57;4.35;;;;;;;;;;5076379;28;20479;-79
2022/03/27 10:25:17;;;;;;;7.35;3.78;;;;;;;;;;5090546;28;20032;-77
2022/03/27 10:27:47;;;;;;;3.45;2.92;;;;;;;;;;5087184;28;20024;-77
2022/03/27 10:30:18;;;;;;;3.17;2.45;;;;;;;;;;5081929;28;20024;-79
2022/03/27 10:32:47;;;;;;;6.22;3.13;;;;;;;;;;5089903;28;20028;-78
2022/03/27 10:35:24;;;;;;;4.53;3.63;;;;;;;;;;5084653;28;20028;-79
2022/03/27 10:37:53;;;;;;;7.88;3.30;;;;;;;;;;5093061;28;20023;-78
2022/03/27 10:40:26;;;;;;;7.25;4.20;;;;;;;;;;5088490;28;20035;-79
2022/03/27 10:43:14;;;;;;;8.32;2.28;;;;;;;;;;5073468;28;20115;-78
2022/03/27 10:45:39;;;;;;;2.70;2.50;;;;;;;;;;5096354;28;20039;-77
2022/03/27 10:48:21;;;;;;;5.13;3.45;;;;;;;;;;5088173;28;20031;-73
2022/03/27 10:50:57;;;;;;;5.45;3.60;;;;;;;;;;5080669;28;20418;-75
2022/03/27 10:53:25;;;;;;;3.72;1.98;;;;;;;;;;5071311;28;20032;-74
2022/03/27 10:55:54;;;;;;;4.80;3.28;;;;;;;;;;5079483;28;20028;-76
2022/03/27 10:58:42;;;;;;;4.38;2.83;;;;;;;;;;5087456;28;20047;-76
2022/03/27 11:01:25;;;;;;;4.85;2.65;;;;;;;;;;5085923;28;20024;-76
2022/03/27 11:04:04;;;;;;;3.13;2.67;;;;;;;;;;5090344;28;20107;-74
2022/03/27 11:06:31;;;;;;;4.68;2.95;;;;;;;;;;5086895;28;20365;-75
2022/03/27 11:09:04;;;;;;;3.53;2.22;;;;;;;;;;5056481;28;20047;-77
2022/03/27 11:11:36;;;;;;;3.13;2.47;;;;;;;;;;5085656;28;20089;-77
2022/03/27 11:14:08;;;;;;;4.50;2.70;;;;;;;;;;5075824;28;20024;-74
2022/03/27 11:16:36;;;;;;;2.88;2.47;;;;;;;;;;5083766;28;20074;-77
2022/03/27 11:19:02;;;;;;;3.25;2.65;;;;;;;;;;5095980;28;20027;-75
2022/03/27 11:21:27;;;;;;;3.00;2.28;;;;;;;;;;5093596;28;20040;-74
2022/03/27 11:24:04;;;;;;;2.92;2.47;;;;;;;;;;5086193;28;20411;-73
2022/03/27 11:26:31;;;;;;;8.30;2.47;;;;;;;;;;5082979;28;20066;-72
2022/03/27 11:29:04;;;;;;;3.50;2.17;;;;;;;;;;5084086;28;20076;-76
2022/03/27 11:31:32;;;;;;;1.95;1.65;;;;;;;;;;5082042;28;20036;-75
2022/03/27 11:34:15;;;;;;;2.78;2.38;;;;;;;;;;5065897;28;20572;-75
2022/03/27 11:36:48;;;;;;;3.45;2.72;;;;;;;;;;5086062;28;20054;-74
2022/03/27 11:39:35;;;;;;;3.05;2.40;;;;;;;;;;5078180;28;20034;-74
2022/03/27 11:42:22;;;;;;;4.03;2.17;;;;;;;;;;5078923;28;20024;-77
2022/03/27 11:45:09;;;;;;;2.35;1.60;;;;;;;;;;5091979;28;20370;-77
2022/03/27 11:47:45;;;;;;;3.17;2.42;;;;;;;;;;5067736;28;20486;-77
2022/03/27 11:50:23;;;;;;;4.07;2.47;;;;;;;;;;5094179;28;20627;-75
2022/03/27 11:52:50;;;;;;;3.35;2.08;;;;;;;;;;5068459;28;20469;-77
2022/03/27 11:55:19;;;;;;;1.67;1.58;;;;;;;;;;5079397;28;20020;-76
2022/03/27 11:57:46;;;;;;;1.63;1.52;;;;;;;;;;5075422;28;20099;-76
2022/03/27 12:00:14;;;;;;;3.08;1.85;;;;;;;;;;5101785;28;20078;-76
2022/03/27 12:02:45;;;;;;;1.80;1.20;;;;;;;;;;5063078;28;20107;-76
2022/03/27 12:05:12;;;;;;;2.38;2.15;;;;;;;;;;5051131;28;20480;-76
2022/03/27 12:07:56;;;;;;;4.60;1.90;;;;;;;;;;5085035;28;20538;-76
2022/03/27 12:10:26;;;;;;;3.22;2.13;;;;;;;;;;5101305;28;20441;-75
2022/03/27 12:12:59;;;;;;;2.45;2.25;;;;;;;;;;5066953;28;20073;-76
2022/03/27 12:15:45;;;;;;;1.38;1.27;;;;;;;;;;5089072;28;20173;-77
2022/03/27 12:18:12;;;;;;;2.15;1.77;;;;;;;;;;5083424;28;20082;-77
2022/03/27 12:20:48;;;;;;;2.13;1.90;;;;;;;;;;5091478;28;20151;-76
2022/03/27 12:23:32;;;;;;;2.03;1.35;;;;;;;;;;5093252;28;20023;-76
2022/03/27 12:26:02;;;;;;;1.77;1.30;;;;;;;;;;5078389;28;20043;-77
2022/03/27 12:31:25;;;;;;;4.00;2.33;;;;;;;;;;5080278;28;20027;-77
2022/03/27 12:33:56;;;;;;;1.13;1.00;;;;;;;;;;5095067;28;20480;-77
2022/03/27 12:36:21;;;;;;;1.27;0.98;;;;;;;;;;5084962;28;20140;-76
2022/03/27 12:38:47;;;;;;;1.67;1.58;;;;;;;;;;5085406;28;20036;-76
2022/03/27 12:41:15;;;;;;;2.20;1.15;;;;;;;;;;5067877;28;20161;-77
2022/03/27 12:43:59;;;;;;;2.65;1.27;;;;;;;;;;5075447;28;20028;-76
2022/03/27 12:46:25;;;;;;;0.85;0.80;;;;;;;;;;5082374;28;20034;-75
2022/03/27 12:49:05;;;;;;;1.48;1.38;;;;;;;;;;5085737;28;20094;-76
2022/03/27 12:51:31;;;;;;;2.70;1.08;;;;;;;;;;5074828;28;20037;-74
2022/03/27 12:54:07;;;;;;;2.05;1.17;;;;;;;;;;5059759;28;20507;-76
2022/03/27 12:56:56;;;;;;;2.03;1.40;;;;;;;;;;5078121;28;20111;-76
2022/03/27 12:59:22;;;;;;;0.88;0.65;;;;;;;;;;5084180;28;20036;-75
2022/03/27 13:01:48;;;;;;;1.10;0.90;;;;;;;;;;5071863;28;20035;-76
2022/03/27 13:04:13;;;;;;;1.58;1.17;;;;;;;;;;5077617;28;20032;-74
2022/03/27 13:06:58;;;;;;;1.73;1.30;;;;;;;;;;5077444;28;20611;-75
2022/03/27 13:09:24;;;;;;;4.53;2.75;;;;;;;;;;5084218;28;20085;-76
2022/03/27 13:11:50;;;;;;;3.00;1.75;;;;;;;;;;5085116;28;20111;-75
2022/03/27 13:14:15;;;;;;;2.17;1.60;;;;;;;;;;5090641;28;20433;-75
2022/03/27 13:16:45;;;;;;;2.13;1.13;;;;;;;;;;5088816;28;20039;-76
2022/03/27 13:19:10;;;;;;;2.00;1.25;;;;;;;;;;5083440;28;20623;-75
2022/03/27 13:21:58;;;;;;;1.48;1.30;;;;;;;;;;5077391;28;20076;-75
2022/03/27 13:24:32;;;;;;;0.98;0.98;;;;;;;;;;5094234;28;20047;-75
2022/03/27 13:27:01;;;;;;;2.40;1.63;;;;;;;;;;5090669;28;20016;-76
2022/03/27 13:29:33;;;;;;;3.08;2.63;;;;;;;;;;5092162;22;20370;-74
2022/03/27 13:32:01;;;;;;;0.68;0.52;;;;;;;;;;5039916;28;20100;-75
2022/03/27 13:34:27;;;;;;;4.03;1.17;;;;;;;;;;5047934;28;20071;-75
2022/03/27 13:36:55;;;;;;;2.80;2.03;;;;;;;;;;5039176;28;20056;-75
2022/03/27 13:39:25;;;;;;;2.28;1.58;;;;;;;;;;5037173;28;20025;-75
2022/03/27 13:44:40;;;;;;;2.08;1.30;;;;;;;;;;5043318;28;20053;-75
2022/03/27 13:47:09;;;;;;;1.50;1.20;;;;;;;;;;5043745;28;20022;-76
2022/03/27 13:49:35;;;;;;;1.33;1.23;;;;;;;;;;5052947;28;20074;-76
2022/03/27 13:52:00;;;;;;;2.28;1.17;;;;;;;;;;5056152;28;20404;-75
2022/03/27 13:54:28;;;;;;;1.77;1.40;;;;;;;;;;5039303;28;20071;-76
2022/03/27 13:56:56;;;;;;;1.38;0.95;;;;;;;;;;5039726;28;20083;-76
2022/03/27 13:59:24;;;;;;;0.95;0.95;;;;;;;;;;5049249;28;20013;-75
2022/03/27 14:01:52;;;;;;;1.67;1.58;;;;;;;;;;5049585;28;20032;-76
2022/03/27 14:04:17;;;;;;;1.45;1.35;;;;;;;;;;5043695;28;20025;-77
2022/03/27 14:06:51;;;;;;;0.52;0.50;;;;;;;;;;5047175;28;20485;-77
2022/03/27 14:09:19;;;;;;;2.75;0.95;;;;;;;;;;5049080;28;20029;-76
2022/03/27 14:11:49;;;;;;;0.57;0.57;;;;;;;;;;5034753;28;20025;-76
2022/03/27 14:14:15;;;;;;;1.80;1.05;;;;;;;;;;5046143;28;20029;-77
2022/03/27 14:16:41;;;;;;;1.77;1.58;;;;;;;;;;5043160;28;20037;-76
2022/03/27 14:19:12;;;;;;;1.20;1.02;;;;;;;;;;5049530;28;20026;-76
2022/03/27 14:21:40;;;;;;;1.10;0.98;;;;;;;;;;5045496;28;20017;-77
2022/03/27 14:24:08;;;;;;;2.22;0.82;;;;;;;;;;5045720;28;20025;-77
2022/03/27 14:26:36;;;;;;;0.63;0.63;;;;;;;;;;5050413;28;20091;-76
2022/03/27 14:29:03;;;;;;;0.98;0.98;;;;;;;;;;5047954;28;20502;-76
2022/03/27 14:31:28;;;;;;;1.25;1.00;;;;;;;;;;5055438;28;20442;-77
2022/03/27 14:33:54;;;;;;;0.73;0.70;;;;;;;;;;5037933;28;20052;-77
2022/03/27 14:36:21;;;;;;;0.77;0.77;;;;;;;;;;5047510;28;20017;-77
2022/03/27 14:38:48;;;;;;;2.85;2.08;;;;;;;;;;5046651;28;20017;-76
2022/03/27 14:41:15;;;;;;;0.85;0.85;;;;;;;;;;5067147;28;20060;-76
2022/03/27 14:43:42;;;;;;;1.38;1.08;;;;;;;;;;5038018;28;20020;-76
2022/03/27 14:46:13;;;;;;;0.85;0.77;;;;;;;;;;5044652;28;20018;-76
2022/03/27 14:48:41;;;;;;;1.08;0.80;;;;;;;;;;5050024;28;20457;-76
2022/03/27 14:51:06;;;;;;;1.50;1.05;;;;;;;;;;5046698;28;20102;-77
2022/03/27 14:55:57;;;;;;;1.50;1.35;;;;;;;;;;5053696;28;20442;-76
2022/03/27 14:56:40;;;;;;;0.40;0.40;;;;;;;;;;5046862;28;20028;-76
2022/03/27 14:59:24;;;;;;;0.68;0.68;;;;;;;;;;5046455;28;20354;-77
2022/03/27 15:01:52;;;;;;;0.73;0.52;;;;;;;;;;5052375;28;20032;-75
2022/03/27 15:04:30;;;;;;;1.48;0.77;;;;;;;;;;5047935;28;20040;-76